Latest Weather Observations for Rabbit Flat

IDD60801

Issued at 3:41 pm CST Tuesday 4 August 2020 (issued every 10 minutes, with the page automatically refreshed every 10 minutes)

About weather observations | Map of weather stations | Latest weather observations for NT | Other Formats
Station Details ID: 015666 Name: RABBIT FLAT Lat: -20.18 Lon: 130.01 Height: 340.0 m
Data from the previous 72 hours. | See also: Recent months at Rabbit Flat
Date/Time
CST
Temp
°C
App
Temp
°C
Dew
Point
°C
Rel
Hum
%
Delta-T
°C
Wind Press
QNH
hPa
Press
MSL
hPa
Rain since
9am
mm
Dir  Spd
km/h
Gust
km/h
Spd
kts
Gust
kts
04/03:30pm 31.5 25.9 -0.2 13 15.5 N 19 32 10 17 1009.8 - 0.0
04/03:00pm 31.4 25.9 0.7 14 15.2 N 19 28 10 15 1010.0 1008.9 0.0
04/02:30pm 31.4 25.8 -0.3 13 15.4 NW 19 28 10 15 1010.4 - 0.0
04/02:00pm 30.9 26.0 -0.7 13 15.2 N 15 28 8 15 1010.9 - 0.0
04/01:30pm 30.6 25.3 1.9 16 14.4 N 19 28 10 15 1011.7 - 0.0
04/01:00pm 29.8 24.5 2.9 18 13.7 N 20 35 11 19 1012.2 - 0.0
04/12:30pm 29.4 24.2 2.6 18 13.5 N 19 35 10 19 1012.8 - 0.0
04/12:00pm 28.5 23.6 4.1 21 12.6 N 19 28 10 15 1013.3 1012.2 0.0
04/11:30am 28.1 23.6 4.4 22 12.3 N 17 28 9 15 1013.8 - 0.0
04/11:00am 26.7 22.6 4.5 24 11.4 N 15 20 8 11 1014.5 - 0.0
04/10:30am 25.2 21.0 3.8 25 10.8 N 15 20 8 11 1014.6 - 0.0
04/10:00am 23.8 20.0 3.7 27 10.0 NNE 13 20 7 11 1014.7 - 0.0
04/09:30am 21.2 18.4 3.4 31 8.6 N 7 11 4 6 1014.5 - 0.0
04/09:00am 18.4 16.0 2.3 34 7.5 NE 4 9 2 5 1014.2 1013.2 0.0
04/08:30am 14.2 12.5 1.8 43 5.5 CALM 0 0 0 0 1014.2 - 0.0
04/08:00am 9.4 7.0 -0.5 50 4.0 E 2 6 1 3 1014.0 - 0.0
04/07:30am 7.2 5.0 -1.5 54 3.3 CALM 0 0 0 0 1013.6 - 0.0
04/07:00am 7.4 5.4 -0.1 59 3.0 CALM 0 0 0 0 1013.4 - 0.0
04/06:30am 7.9 4.5 -0.3 56 3.3 N 7 9 4 5 1013.1 - 0.0
04/06:00am 8.5 5.2 0.2 56 3.4 N 7 9 4 5 1013.0 1011.9 0.0
04/05:30am 8.3 6.4 0.3 57 3.2 CALM 0 0 0 0 1012.9 - 0.0
04/05:00am 9.7 6.5 -0.8 48 4.2 ENE 6 7 3 4 1013.1 - 0.0
04/04:30am 11.6 8.3 -0.2 44 4.9 S 7 9 4 5 1013.2 - 0.0
04/04:00am 12.6 7.1 0.7 44 5.1 SW 19 22 10 12 1013.1 - 0.0
04/03:30am 11.0 6.7 1.0 50 4.2 N 13 15 7 8 1011.9 - 0.0
04/03:00am 9.0 5.4 -2.3 45 4.3 N 7 9 4 5 1012.5 1011.5 0.0
04/02:30am 9.7 6.2 -2.6 42 4.7 N 6 7 3 4 1013.0 - 0.0
04/02:00am 8.9 5.2 -3.0 43 4.5 N 7 9 4 5 1013.0 - 0.0
04/01:30am 8.8 4.9 -4.7 38 4.9 N 7 9 4 5 1013.1 - 0.0
04/01:00am 9.6 6.1 -3.0 41 4.8 NNW 6 6 3 3 1013.3 - 0.0
04/12:30am 9.6 5.8 -4.0 38 5.1 NNW 7 7 4 4 1013.4 - 0.0
04/12:00am 10.0 6.2 -5.1 34 5.5 N 6 7 3 4 1013.5 1012.4 0.0
 
Date/Time
CST
Temp
°C
App
Temp
°C
Dew
Point
°C
Rel
Hum
%
Delta-T
°C
Wind Press
QNH
hPa
Press
MSL
hPa
Rain since
9am
mm
Dir  Spd
km/h
Gust
km/h
Spd
kts
Gust
kts
03/11:30pm 10.6 6.8 -5.8 31 5.9 N 6 7 3 4 1013.5 - 0.0
03/11:00pm 11.0 7.1 -5.0 32 5.9 WNW 7 7 4 4 1013.4 - 0.0
03/10:30pm 11.7 9.1 -4.8 31 6.2 CALM 0 0 0 0 1013.5 - 0.0
03/10:00pm 12.5 9.9 -4.6 30 6.5 CALM 0 0 0 0 1013.6 - 0.0
03/09:30pm 13.4 10.8 -4.7 28 6.9 CALM 0 0 0 0 1013.6 - 0.0
03/09:00pm 14.3 11.7 -5.4 25 7.5 CALM 0 0 0 0 1013.4 1012.3 0.0
03/08:30pm 15.8 12.0 -5.8 22 8.3 NE 6 7 3 4 1013.0 - 0.0
03/08:00pm 17.7 13.6 -6.2 19 9.3 NE 7 9 4 5 1012.6 - 0.0
03/07:30pm 20.0 15.8 -3.6 20 9.9 NE 9 9 5 5 1012.2 - 0.0
03/07:00pm 23.2 19.2 -5.7 14 12.0 NE 7 9 4 5 1011.9 - 0.0
03/06:30pm 25.4 20.5 -7.2 11 13.4 NE 11 13 6 7 1011.7 - 0.0
03/06:00pm 28.0 23.5 -6.4 10 14.7 NE 9 13 5 7 1011.7 1010.7 0.0
03/05:30pm 29.0 24.5 -7.0 9 15.3 N 9 13 5 7 1011.7 - 0.0
03/05:00pm 29.2 25.1 -6.9 9 15.4 NE 7 17 4 9 1011.6 - 0.0
03/04:30pm 29.3 25.4 -6.8 9 15.5 NE 6 13 3 7 1011.7 - 0.0
03/04:00pm 29.5 25.4 -6.7 9 15.6 NE 7 15 4 8 1011.9 - 0.0
03/03:30pm 29.2 24.2 -8.4 8 15.7 N 11 20 6 11 1012.1 - 0.0
03/03:00pm 29.2 23.9 -6.9 9 15.4 NNE 13 20 7 11 1012.6 1011.6 0.0
03/02:30pm 28.9 23.4 -5.7 10 15.1 NNW 15 22 8 12 1013.2 - 0.0
03/02:00pm 28.2 23.0 -6.3 10 14.8 N 13 24 7 13 1013.7 - 0.0
03/01:30pm 29.0 24.0 -4.4 11 14.9 NNW 13 26 7 14 1014.1 - 0.0
03/01:00pm 28.2 22.7 -5.0 11 14.6 NNE 15 22 8 12 1014.8 - 0.0
03/12:30pm 27.6 21.1 -5.5 11 14.3 NNE 20 30 11 16 1015.3 - 0.0
03/12:00pm 26.6 20.3 -6.2 11 13.9 NNE 19 26 10 14 1015.7 1014.7 0.0
03/11:30am 26.5 20.9 -6.3 11 13.8 NNE 15 20 8 11 1016.1 - 0.0
03/11:00am 25.3 19.7 -6.1 12 13.2 NE 15 20 8 11 1016.4 - 0.0
03/10:30am 24.1 18.2 -6.0 13 12.5 NE 17 22 9 12 1016.7 - 0.0
03/10:00am 22.4 17.3 -5.5 15 11.5 NNE 13 22 7 12 1016.7 - 0.0
03/09:30am 19.0 14.9 -3.2 22 9.3 N 9 13 5 7 1016.6 - 0.0
03/09:00am 15.6 12.5 -2.8 28 7.5 N 4 6 2 3 1016.4 1015.3 0.0
03/08:30am 11.3 8.9 -2.8 37 5.5 CALM 0 2 0 1 1016.3 - 0.0
03/08:00am 6.4 2.7 -3.0 51 3.4 WNW 7 7 4 4 1015.9 - 0.0
03/07:30am 3.2 -0.5 -5.0 55 2.7 W 6 7 3 4 1015.4 - 0.0
03/07:00am 3.9 0.4 -3.1 60 2.5 W 6 7 3 4 1015.2 - 0.0
03/06:30am 4.0 0.1 -4.9 52 3.0 W 7 7 4 4 1015.2 - 0.0
03/06:00am 4.6 1.0 -3.9 54 3.0 W 6 7 3 4 1015.1 1014.1 0.0
03/05:30am 5.0 1.2 -3.5 54 3.0 W 7 9 4 5 1015.0 - 0.0
03/05:00am 4.9 0.6 -4.6 50 3.3 W 9 11 5 6 1015.1 - 0.0
03/04:30am 6.0 1.9 -2.8 53 3.2 WNW 9 9 5 5 1015.0 - 0.0
03/04:00am 5.2 0.9 -5.2 47 3.6 W 9 11 5 6 1015.1 - 0.0
03/03:30am 5.8 1.5 -4.6 47 3.6 WNW 9 9 5 5 1015.1 - 0.0
03/03:00am 6.4 2.6 -4.1 47 3.7 WNW 7 9 4 5 1015.3 1014.3 0.0
03/02:30am 6.6 2.7 -4.5 45 3.9 NW 7 7 4 4 1015.7 - 0.0
03/02:00am 7.2 3.5 -4.8 42 4.2 W 6 7 3 4 1016.0 - 0.0
03/01:30am 7.5 3.6 -4.9 41 4.4 W 7 7 4 4 1016.1 - 0.0
03/01:00am 7.5 3.6 -4.2 43 4.2 W 7 7 4 4 1016.2 - 0.0
03/12:30am 8.0 3.9 -6.5 35 5.0 NNW 7 7 4 4 1016.3 - 0.0
03/12:00am 8.7 4.8 -6.3 34 5.2 NE 6 6 3 3 1016.4 1015.3 0.0
 
Date/Time
CST
Temp
°C
App
Temp
°C
Dew
Point
°C
Rel
Hum
%
Delta-T
°C
Wind Press
QNH
hPa
Press
MSL
hPa
Rain since
9am
mm
Dir  Spd
km/h
Gust
km/h
Spd
kts
Gust
kts
02/11:30pm 9.2 5.3 -6.6 32 5.5 NE 6 7 3 4 1016.4 - 0.0
02/11:00pm 11.2 7.4 -5.7 30 6.2 ENE 6 7 3 4 1016.5 - 0.0
02/10:30pm 13.0 8.6 -5.5 27 6.9 E 9 11 5 6 1016.5 - 0.0
02/10:00pm 13.3 8.6 -5.3 27 7.0 E 11 11 6 6 1016.4 - 0.0
02/09:30pm 12.8 8.8 -5.2 28 6.8 ENE 7 7 4 4 1016.3 - 0.0
02/09:00pm 13.7 9.2 -6.5 24 7.4 E 9 11 5 6 1016.1 1015.0 0.0
02/08:30pm 14.0 9.6 -6.2 24 7.5 ENE 9 9 5 5 1015.7 - 0.0
02/08:00pm 15.3 11.2 -6.3 22 8.1 E 7 9 4 5 1015.5 - 0.0
02/07:30pm 18.1 14.0 -8.9 15 9.9 E 6 9 3 5 1015.3 - 0.0
02/07:00pm 20.7 16.6 -6.8 15 10.9 ENE 7 7 4 4 1015.0 - 0.0
02/06:30pm 23.8 19.6 -7.3 12 12.6 NE 7 7 4 4 1014.8 - 0.0
02/06:00pm 25.8 20.8 -8.1 10 13.7 NE 11 17 6 9 1014.7 1013.7 0.0
02/05:30pm 26.5 21.2 -7.6 10 14.1 NE 13 20 7 11 1014.4 - 0.0
02/05:00pm 27.0 21.3 -7.2 10 14.3 NNE 15 26 8 14 1014.3 - 0.0
02/04:30pm 27.3 21.5 -8.3 9 14.6 E 15 20 8 11 1014.3 - 0.0
02/04:00pm 27.3 21.5 -8.3 9 14.6 NE 15 26 8 14 1014.5 - 0.0
02/03:30pm 27.6 22.0 -6.7 10 14.5 NE 15 20 8 11 1014.5 - 0.0
02/03:00pm 27.1 20.9 -8.5 9 14.5 NE 17 37 9 20 1014.7 1013.7 0.0
02/02:30pm 27.2 20.6 -7.0 10 14.3 NNE 20 35 11 19 1015.0 - 0.0
02/02:00pm 27.0 20.3 -8.5 9 14.5 E 20 28 11 15 1015.6 - 0.0
02/01:30pm 27.1 20.5 -7.1 10 14.3 NE 20 37 11 20 1016.5 - 0.0
02/01:00pm 26.3 19.6 -7.7 10 14.0 NE 20 32 11 17 1017.3 - 0.0
02/12:30pm 25.9 19.2 -8.0 10 13.8 NE 20 33 11 18 1017.8 - 0.0
02/12:00pm 25.5 18.8 -8.3 10 13.6 NE 20 33 11 18 1018.2 1017.2 0.0
02/11:30am 24.9 17.9 -7.5 11 13.2 NE 22 33 12 18 1018.6 - 0.0
02/11:00am 24.3 17.6 -8.0 11 12.9 NE 20 30 11 16 1019.1 - 0.0
02/10:30am 22.7 16.9 -8.1 12 12.1 NNE 15 24 8 13 1019.3 - 0.0
02/10:00am 20.6 15.3 -7.8 14 11.0 ENE 13 19 7 10 1019.4 - 0.0
02/09:30am 18.2 12.8 -8.8 15 10.0 ENE 13 17 7 9 1019.4 - 0.0
02/09:00am 15.5 12.3 -6.7 21 8.3 WSW 2 9 1 5 1019.3 1018.3 0.0
02/08:30am 10.5 7.8 -6.3 30 6.0 CALM 0 0 0 0 1019.3 - 0.0
02/08:00am 5.7 2.4 -4.7 47 3.6 S 4 7 2 4 1019.1 - 0.0
02/07:30am 2.3 -0.4 -5.8 55 2.8 CALM 0 0 0 0 1018.6 - 0.0
02/07:00am 2.4 -1.1 -6.7 51 3.0 WNW 4 6 2 3 1018.4 - 0.0
02/06:30am 2.4 -0.4 -6.7 51 3.0 CALM 0 0 0 0 1018.0 - 0.0
02/06:00am 2.7 -1.3 -7.2 48 3.3 W 6 7 3 4 1017.9 1016.9 0.0
02/05:30am 3.0 -1.1 -6.6 49 3.3 WNW 7 9 4 5 1017.7 - 0.0
02/05:00am 3.3 0.5 -7.2 46 3.5 CALM 0 0 0 0 1017.4 - 0.0
02/04:30am 3.9 0.0 -6.6 46 3.4 NW 6 7 3 4 1017.7 - 0.0
02/04:00am 4.1 1.4 -6.2 47 3.4 CALM 0 6 0 3 1018.0 - 0.0
02/03:30am 4.2 1.4 -7.2 43 3.6 CALM 0 0 0 0 1018.2 - 0.0
02/03:00am 4.7 1.5 -6.8 43 3.7 SSE 2 6 1 3 1018.2 1017.2 0.0
02/02:30am 5.1 1.1 -7.7 39 4.1 SSE 6 7 3 4 1018.4 - 0.0
02/02:00am 5.8 1.2 -8.5 35 4.5 SSE 9 9 5 5 1018.4 - 0.0
02/01:30am 5.9 2.0 -6.3 41 4.1 ESE 6 7 3 4 1018.5 - 0.0
02/01:00am 6.4 3.5 -7.9 35 4.6 CALM 0 0 0 0 1018.7 - 0.0
02/12:30am 7.1 4.2 -7.7 34 4.9 CALM 0 0 0 0 1019.1 - 0.0
02/12:00am 7.0 3.2 -9.4 30 5.2 E 4 6 2 3 1019.2 1018.2 0.0
 
Date/Time
CST
Temp
°C
App
Temp
°C
Dew
Point
°C
Rel
Hum
%
Delta-T
°C
Wind Press
QNH
hPa
Press
MSL
hPa
Rain since
9am
mm
Dir  Spd
km/h
Gust
km/h
Spd
kts
Gust
kts
01/11:30pm 8.4 4.1 -9.0 28 5.6 E 7 9 4 5 1019.3 - 0.0
01/11:00pm 9.2 4.9 -9.3 26 6.0 E 7 9 4 5 1019.4 - 0.0
01/10:30pm 9.9 5.6 -9.2 25 6.3 E 7 7 4 4 1019.3 - 0.0
01/10:00pm 10.7 6.6 -9.0 24 6.6 E 6 7 3 4 1019.3 - 0.0
01/09:30pm 11.9 7.5 -10.3 20 7.3 E 7 9 4 5 1019.0 - 0.0
01/09:00pm 14.5 10.0 -11.0 16 8.6 ENE 7 9 4 5 1018.8 1017.8 0.0
01/08:30pm 16.8 11.7 -9.9 15 9.5 ENE 11 13 6 7 1018.6 - 0.0
01/08:00pm 17.7 12.5 -10.1 14 9.9 ENE 11 13 6 7 1018.5 - 0.0
01/07:30pm 19.5 13.9 -10.6 12 10.9 E 13 15 7 8 1018.2 - 0.0
01/07:00pm 20.6 15.4 -10.9 11 11.5 E 11 13 6 7 1017.8 - 0.0
01/06:30pm 23.2 17.6 -11.4 9 12.8 E 13 17 7 9 1017.6 - 0.0
01/06:00pm 25.3 19.2 -12.9 7 14.1 E 15 20 8 11 1017.3 1016.3 0.0
01/05:30pm 26.1 20.0 -12.3 7 14.5 E 15 20 8 11 1017.1 - 0.0
01/05:00pm 26.4 19.6 -12.1 7 14.6 E 19 28 10 15 1016.7 - 0.0
01/04:30pm 26.9 20.0 -13.7 6 15.1 E 19 28 10 15 1016.8 - 0.0
01/04:00pm 26.9 20.5 -11.8 7 14.8 E 17 24 9 13 1016.7 - 0.0

Other formats

Comma delimited format used in spreadsheet applications
http://www.bom.gov.au/fwo/IDD60801/IDD60801.95322.axf

JavaScript Object Notation format (JSON) in row-major order
http://www.bom.gov.au/fwo/IDD60801/IDD60801.95322.json

Data quality

Most of these data are generated automatically and are frequently updated. Quality checks on data are not normally performed. It is possible for incorrect values to appear. Refer to information at About Latest Weather Observations and please check the disclaimer before using these data.